Time;durP1;ratioP1;P1;durP2;ratioP2;P2;SDS_P1;SDS_P2;PMS_P1;PMS_P2;Temp;Humidity;BMP_temperature;BMP_pressure;BME280_temperature;BME280_humidity;BME280_pressure;Samples;Min_cycle;Max_cycle;Signal;HPM_P1;HPM_P2
2022/08/25 00:01:49;;;;;;;22.08;11.75;;;;;;;;;;5072149;28;20028;-66
2022/08/25 00:04:17;;;;;;;21.40;12.43;;;;;;;;;;5057599;28;20035;-66
2022/08/25 00:06:44;;;;;;;19.58;12.18;;;;;;;;;;5052278;28;20025;-67
2022/08/25 00:09:11;;;;;;;19.20;11.60;;;;;;;;;;5052240;28;20025;-67
2022/08/25 00:11:39;;;;;;;19.83;11.75;;;;;;;;;;5054258;28;20029;-67
2022/08/25 00:14:08;;;;;;;21.52;12.93;;;;;;;;;;5055974;28;20395;-67
2022/08/25 00:16:34;;;;;;;25.73;13.25;;;;;;;;;;5055909;28;20052;-67
2022/08/25 00:19:04;;;;;;;19.98;12.32;;;;;;;;;;5056003;28;20503;-67
2022/08/25 00:21:30;;;;;;;20.67;12.10;;;;;;;;;;5055772;28;20031;-67
2022/08/25 00:23:56;;;;;;;25.05;13.50;;;;;;;;;;5055788;28;20033;-67
2022/08/25 00:26:23;;;;;;;22.27;12.35;;;;;;;;;;5055979;28;20079;-66
2022/08/25 00:28:48;;;;;;;25.55;14.15;;;;;;;;;;5055801;28;20060;-67
2022/08/25 00:31:17;;;;;;;24.23;14.48;;;;;;;;;;5055566;28;20123;-67
2022/08/25 00:33:44;;;;;;;22.92;13.57;;;;;;;;;;5055537;28;20099;-67
2022/08/25 00:36:11;;;;;;;24.17;14.05;;;;;;;;;;5055549;28;20472;-67
2022/08/25 00:38:42;;;;;;;22.30;13.02;;;;;;;;;;5055393;28;20121;-66
2022/08/25 00:41:10;;;;;;;18.65;12.50;;;;;;;;;;5055421;28;20423;-67
2022/08/25 00:43:46;;;;;;;23.00;12.70;;;;;;;;;;5055406;28;20127;-67
2022/08/25 00:46:16;;;;;;;22.38;11.88;;;;;;;;;;5055257;28;20118;-67
2022/08/25 00:48:42;;;;;;;;;;;;;;;;;;5055883;28;20405;-67
2022/08/25 00:51:13;;;;;;;25.63;12.95;;;;;;;;;;5055460;28;19913;-68
2022/08/25 00:53:39;;;;;;;23.88;12.05;;;;;;;;;;5055123;28;20045;-67
2022/08/25 00:56:05;;;;;;;18.48;12.82;;;;;;;;;;5055291;28;20495;-65
2022/08/25 00:58:33;;;;;;;22.75;12.73;;;;;;;;;;5055182;28;20025;-67
2022/08/25 01:00:58;;;;;;;19.58;12.38;;;;;;;;;;5054995;28;20370;-68
2022/08/25 01:03:27;;;;;;;19.35;11.57;;;;;;;;;;5055074;28;20036;-66
2022/08/25 01:05:54;;;;;;;18.75;11.20;;;;;;;;;;5054866;28;20112;-67
2022/08/25 01:08:22;;;;;;;18.80;12.05;;;;;;;;;;5055032;28;20021;-67
2022/08/25 01:10:49;;;;;;;25.02;12.32;;;;;;;;;;5054791;28;20463;-67
2022/08/25 01:13:19;;;;;;;19.83;11.50;;;;;;;;;;5054914;28;20100;-67
2022/08/25 01:15:47;;;;;;;18.10;11.60;;;;;;;;;;5054911;28;20414;-67
2022/08/25 01:18:14;;;;;;;22.98;11.57;;;;;;;;;;5054812;28;20033;-66
2022/08/25 01:20:40;;;;;;;19.98;12.00;;;;;;;;;;5054812;28;20033;-67
2022/08/25 01:23:06;;;;;;;15.25;11.23;;;;;;;;;;5054780;28;20078;-66
2022/08/25 01:26:04;;;;;;;15.88;11.45;;;;;;;;;;5054591;28;20033;-67
2022/08/25 01:28:29;;;;;;;17.52;11.38;;;;;;;;;;5050152;28;20036;-66
2022/08/25 01:30:55;;;;;;;18.90;11.20;;;;;;;;;;5054617;28;20108;-67
2022/08/25 01:33:20;;;;;;;18.75;11.93;;;;;;;;;;5054657;28;20044;-66
2022/08/25 01:35:47;;;;;;;18.88;11.43;;;;;;;;;;5054454;28;20494;-67
2022/08/25 01:38:13;;;;;;;17.17;11.23;;;;;;;;;;5054459;28;20037;-67
2022/08/25 01:40:40;;;;;;;17.30;10.75;;;;;;;;;;5054318;28;20396;-67
2022/08/25 01:43:05;;;;;;;18.52;11.00;;;;;;;;;;5054054;28;20443;-68
2022/08/25 01:45:32;;;;;;;18.50;10.82;;;;;;;;;;5054258;28;20116;-66
2022/08/25 01:47:57;;;;;;;21.85;12.10;;;;;;;;;;5054247;28;20063;-66
2022/08/25 01:50:24;;;;;;;18.98;11.95;;;;;;;;;;5054304;28;20053;-67
2022/08/25 01:53:03;;;;;;;16.85;11.07;;;;;;;;;;5053948;28;20075;-66
2022/08/25 01:55:50;;;;;;;16.45;11.18;;;;;;;;;;5054139;28;20426;-66
2022/08/25 01:58:23;;;;;;;21.95;11.20;;;;;;;;;;5053556;28;20508;-66
2022/08/25 02:00:50;;;;;;;24.20;11.43;;;;;;;;;;5054043;28;20029;-67
2022/08/25 02:03:17;;;;;;;21.90;11.48;;;;;;;;;;5054261;28;20029;-66
2022/08/25 02:05:43;;;;;;;15.52;10.85;;;;;;;;;;5053792;28;20041;-66
2022/08/25 02:08:10;;;;;;;20.15;11.90;;;;;;;;;;5053835;28;20098;-67
2022/08/25 02:10:37;;;;;;;20.13;12.00;;;;;;;;;;5053991;28;20029;-66
2022/08/25 02:13:03;;;;;;;17.73;11.95;;;;;;;;;;5053581;28;20040;-66
2022/08/25 02:15:29;;;;;;;17.05;11.55;;;;;;;;;;5053580;28;20079;-66
2022/08/25 02:17:56;;;;;;;21.25;13.77;;;;;;;;;;5053490;28;20071;-66
2022/08/25 02:20:22;;;;;;;20.05;13.30;;;;;;;;;;5053692;28;20357;-66
2022/08/25 02:22:50;;;;;;;22.40;13.18;;;;;;;;;;5053560;28;20032;-66
2022/08/25 02:25:15;;;;;;;18.98;12.10;;;;;;;;;;5053430;28;20053;-66
2022/08/25 02:27:41;;;;;;;21.20;13.55;;;;;;;;;;5053298;28;20064;-66
2022/08/25 02:30:07;;;;;;;18.58;12.75;;;;;;;;;;5053446;28;20021;-67
2022/08/25 02:32:33;;;;;;;20.45;12.80;;;;;;;;;;5059722;28;20052;-66
2022/08/25 02:34:58;;;;;;;23.13;13.25;;;;;;;;;;5072893;28;20464;-66
2022/08/25 02:37:24;;;;;;;19.98;13.57;;;;;;;;;;5073191;28;20459;-66
2022/08/25 02:39:49;;;;;;;23.05;13.07;;;;;;;;;;5073151;28;20036;-67
2022/08/25 02:42:15;;;;;;;20.52;11.90;;;;;;;;;;5072754;28;20027;-65
2022/08/25 02:44:40;;;;;;;19.48;11.20;;;;;;;;;;5073037;28;20038;-66
2022/08/25 02:47:06;;;;;;;18.05;11.00;;;;;;;;;;5073080;28;20479;-66
2022/08/25 02:49:32;;;;;;;18.20;10.93;;;;;;;;;;5073054;28;20090;-66
2022/08/25 02:51:59;;;;;;;18.55;11.55;;;;;;;;;;5072769;28;20060;-66
2022/08/25 02:54:25;;;;;;;20.05;11.73;;;;;;;;;;5073088;28;20032;-66
2022/08/25 02:56:51;;;;;;;17.23;11.30;;;;;;;;;;5072679;28;20036;-66
2022/08/25 02:59:17;;;;;;;17.42;11.05;;;;;;;;;;5072835;28;20074;-65
2022/08/25 03:01:43;;;;;;;19.63;12.27;;;;;;;;;;5072986;28;20119;-66
2022/08/25 03:04:08;;;;;;;16.73;10.80;;;;;;;;;;5073905;28;20032;-67
2022/08/25 03:06:34;;;;;;;23.10;12.00;;;;;;;;;;5073167;28;20103;-66
2022/08/25 03:09:00;;;;;;;18.27;11.38;;;;;;;;;;5073051;28;20020;-67
2022/08/25 03:11:25;;;;;;;22.02;12.18;;;;;;;;;;5072479;28;20032;-66
2022/08/25 03:13:52;;;;;;;17.50;12.52;;;;;;;;;;5059962;28;20124;-67
2022/08/25 03:16:19;;;;;;;16.83;11.43;;;;;;;;;;5052731;28;20435;-66
2022/08/25 03:18:45;;;;;;;16.13;11.80;;;;;;;;;;5052657;28;20029;-66
2022/08/25 03:21:11;;;;;;;21.83;11.80;;;;;;;;;;5052601;28;20120;-66
2022/08/25 03:23:37;;;;;;;28.38;13.35;;;;;;;;;;5052647;28;20112;-66
2022/08/25 03:28:46;;;;;;;21.60;12.68;;;;;;;;;;5058459;28;20403;-65
2022/08/25 03:31:12;;;;;;;18.48;12.70;;;;;;;;;;5072567;28;20028;-65
2022/08/25 03:33:37;;;;;;;25.15;14.13;;;;;;;;;;5072496;28;20033;-66
2022/08/25 03:36:04;;;;;;;17.15;12.80;;;;;;;;;;5072456;28;20111;-66
2022/08/25 03:38:30;;;;;;;18.00;13.20;;;;;;;;;;5072443;28;20060;-66
2022/08/25 03:40:55;;;;;;;23.48;14.55;;;;;;;;;;5072096;28;20145;-67
2022/08/25 03:43:21;;;;;;;23.77;15.40;;;;;;;;;;5072419;28;20055;-66
2022/08/25 03:45:46;;;;;;;22.88;14.63;;;;;;;;;;5069659;28;20040;-66
2022/08/25 03:48:13;;;;;;;24.98;14.82;;;;;;;;;;5056533;28;20029;-66
2022/08/25 03:50:50;;;;;;;25.77;16.80;;;;;;;;;;5058960;28;20095;-65
2022/08/25 03:53:15;;;;;;;22.85;16.50;;;;;;;;;;5055546;28;20041;-66
2022/08/25 03:55:41;;;;;;;25.25;16.67;;;;;;;;;;5059833;28;20545;-67
2022/08/25 03:58:07;;;;;;;24.95;16.40;;;;;;;;;;5074797;28;20034;-66
2022/08/25 04:00:33;;;;;;;21.48;15.73;;;;;;;;;;5070565;28;20033;-66
2022/08/25 04:02:58;;;;;;;26.33;17.10;;;;;;;;;;5054976;28;20032;-67
2022/08/25 04:05:24;;;;;;;32.25;17.50;;;;;;;;;;5057520;28;20415;-67
2022/08/25 04:07:49;;;;;;;25.02;15.82;;;;;;;;;;5074739;28;20087;-67
2022/08/25 04:10:15;;;;;;;26.70;16.20;;;;;;;;;;5072626;28;20494;-65
2022/08/25 04:12:40;;;;;;;24.27;14.85;;;;;;;;;;5054724;28;20025;-66
2022/08/25 04:15:07;;;;;;;23.73;15.75;;;;;;;;;;5059378;28;20037;-66
2022/08/25 04:17:35;;;;;;;24.55;16.80;;;;;;;;;;5065871;28;20020;-66
2022/08/25 04:20:02;;;;;;;25.02;14.95;;;;;;;;;;5074502;28;20020;-68
2022/08/25 04:22:28;;;;;;;22.30;15.55;;;;;;;;;;5074066;28;20078;-67
2022/08/25 04:24:53;;;;;;;21.90;15.45;;;;;;;;;;5074547;28;20032;-68
2022/08/25 04:27:19;;;;;;;22.58;14.50;;;;;;;;;;5074493;28;20029;-68
2022/08/25 04:29:44;;;;;;;25.55;15.35;;;;;;;;;;5074318;28;20025;-67
2022/08/25 04:32:10;;;;;;;24.02;15.82;;;;;;;;;;5074461;28;20384;-68
2022/08/25 04:34:35;;;;;;;17.73;13.52;;;;;;;;;;5074343;28;20035;-68
2022/08/25 04:37:04;;;;;;;20.35;14.43;;;;;;;;;;5074224;28;20036;-68
2022/08/25 04:39:30;;;;;;;19.35;13.82;;;;;;;;;;5074058;28;20032;-68
2022/08/25 04:41:56;;;;;;;21.73;15.10;;;;;;;;;;5074074;28;20025;-67
2022/08/25 04:44:21;;;;;;;19.20;12.63;;;;;;;;;;5073068;28;20028;-67
2022/08/25 04:46:48;;;;;;;23.05;12.98;;;;;;;;;;5074070;28;20491;-66
2022/08/25 04:49:14;;;;;;;18.83;13.18;;;;;;;;;;5073991;28;20032;-66
2022/08/25 04:51:40;;;;;;;22.80;14.88;;;;;;;;;;5073347;28;20028;-67
2022/08/25 04:54:12;;;;;;;25.23;14.77;;;;;;;;;;5023874;28;1455601;-68
2022/08/25 04:56:40;;;;;;;19.05;13.35;;;;;;;;;;5074016;28;20064;-67
2022/08/25 04:59:09;;;;;;;22.63;12.88;;;;;;;;;;5074387;28;20033;-66
2022/08/25 05:01:36;;;;;;;22.15;14.75;;;;;;;;;;5074556;28;20017;-67
2022/08/25 05:04:04;;;;;;;24.42;14.43;;;;;;;;;;5075084;28;20094;-66
2022/08/25 05:06:30;;;;;;;19.88;13.60;;;;;;;;;;5073251;28;20043;-67
2022/08/25 05:08:56;;;;;;;19.65;12.40;;;;;;;;;;5074996;28;20020;-67
2022/08/25 05:11:23;;;;;;;17.88;12.13;;;;;;;;;;5074461;28;20028;-67
2022/08/25 05:13:50;;;;;;;21.10;12.27;;;;;;;;;;5074807;28;20024;-68
2022/08/25 05:16:16;;;;;;;21.92;11.48;;;;;;;;;;5074041;28;20031;-68
2022/08/25 05:18:43;;;;;;;20.98;11.65;;;;;;;;;;5074680;28;20028;-68
2022/08/25 05:21:12;;;;;;;19.88;11.07;;;;;;;;;;5074664;28;20029;-68
2022/08/25 05:23:38;;;;;;;18.92;11.18;;;;;;;;;;5074695;28;20040;-67
2022/08/25 05:26:09;;;;;;;22.27;13.02;;;;;;;;;;5074562;28;20024;-67
2022/08/25 05:28:36;;;;;;;23.10;12.65;;;;;;;;;;5073807;28;20023;-68
2022/08/25 05:31:03;;;;;;;24.13;13.10;;;;;;;;;;5074523;28;20033;-67
2022/08/25 05:33:29;;;;;;;19.83;11.95;;;;;;;;;;5074449;28;20027;-68
2022/08/25 05:35:54;;;;;;;18.13;12.35;;;;;;;;;;5074062;28;20543;-67
2022/08/25 05:38:21;;;;;;;23.90;13.00;;;;;;;;;;5074456;28;20037;-66
2022/08/25 05:40:46;;;;;;;19.98;12.00;;;;;;;;;;5074259;28;20060;-68
2022/08/25 05:43:13;;;;;;;22.40;13.18;;;;;;;;;;5074434;28;20063;-67
2022/08/25 05:45:40;;;;;;;24.33;12.50;;;;;;;;;;5073409;28;20029;-67
2022/08/25 05:48:05;;;;;;;23.77;12.90;;;;;;;;;;5062222;28;20107;-68
2022/08/25 05:50:31;;;;;;;26.00;12.82;;;;;;;;;;5067693;28;20111;-67
2022/08/25 05:52:56;;;;;;;23.08;13.27;;;;;;;;;;5068286;28;20097;-67
2022/08/25 05:55:22;;;;;;;22.00;13.68;;;;;;;;;;5066854;28;20091;-67
2022/08/25 05:57:48;;;;;;;23.55;14.10;;;;;;;;;;5061101;28;20033;-67
2022/08/25 06:00:15;;;;;;;25.77;13.02;;;;;;;;;;5063264;28;20017;-67
2022/08/25 06:02:45;;;;;;;20.98;13.32;;;;;;;;;;5058672;28;20029;-67
2022/08/25 06:05:20;;;;;;;20.75;13.07;;;;;;;;;;5064796;28;20075;-68
2022/08/25 06:07:48;;;;;;;17.88;12.75;;;;;;;;;;5056454;28;20028;-65
2022/08/25 06:10:14;;;;;;;24.35;12.77;;;;;;;;;;5062093;28;20025;-67
2022/08/25 06:12:45;;;;;;;18.17;12.90;;;;;;;;;;5060042;28;20383;-68
2022/08/25 06:15:13;;;;;;;17.67;12.52;;;;;;;;;;5058708;28;20540;-67
2022/08/25 06:17:42;;;;;;;19.08;13.20;;;;;;;;;;5059851;28;20037;-65
2022/08/25 06:20:33;;;;;;;19.27;12.10;;;;;;;;;;5071382;28;20637;-68
2022/08/25 06:22:59;;;;;;;20.85;11.07;;;;;;;;;;5065539;28;20045;-67
2022/08/25 06:25:26;;;;;;;17.55;10.50;;;;;;;;;;5068037;28;20033;-67
2022/08/25 06:27:53;;;;;;;18.80;11.95;;;;;;;;;;5073457;28;20036;-67
2022/08/25 06:30:21;;;;;;;20.75;10.50;;;;;;;;;;5067057;28;20097;-68
2022/08/25 06:32:48;;;;;;;17.45;10.55;;;;;;;;;;5053415;28;20504;-66
2022/08/25 06:35:16;;;;;;;20.02;10.77;;;;;;;;;;5053111;28;20025;-67
2022/08/25 06:37:42;;;;;;;15.85;10.43;;;;;;;;;;5053161;28;20018;-66
2022/08/25 06:40:10;;;;;;;15.73;10.80;;;;;;;;;;5053234;28;20035;-66
2022/08/25 06:42:36;;;;;;;16.15;10.50;;;;;;;;;;5052864;28;20025;-67
2022/08/25 06:45:02;;;;;;;16.98;9.88;;;;;;;;;;5053120;28;20451;-66
2022/08/25 06:47:28;;;;;;;20.13;11.02;;;;;;;;;;5052772;28;20032;-66
2022/08/25 06:49:54;;;;;;;19.75;10.55;;;;;;;;;;5053168;28;20071;-66
2022/08/25 06:52:20;;;;;;;14.75;9.18;;;;;;;;;;5056169;28;20041;-67
2022/08/25 06:54:45;;;;;;;18.33;9.70;;;;;;;;;;5062582;28;20028;-67
2022/08/25 06:57:11;;;;;;;15.88;9.82;;;;;;;;;;5071346;28;20028;-67
2022/08/25 06:59:38;;;;;;;13.55;8.63;;;;;;;;;;5072741;28;20028;-67
2022/08/25 07:02:05;;;;;;;15.23;8.85;;;;;;;;;;5072596;28;20024;-67
2022/08/25 07:04:32;;;;;;;21.92;9.75;;;;;;;;;;5072956;28;20020;-66
2022/08/25 07:06:58;;;;;;;17.80;10.25;;;;;;;;;;5072933;28;20048;-66
2022/08/25 07:09:23;;;;;;;12.48;9.15;;;;;;;;;;5071411;28;20431;-66
2022/08/25 07:11:49;;;;;;;15.90;9.55;;;;;;;;;;5072628;28;20020;-65
2022/08/25 07:14:16;;;;;;;15.00;9.73;;;;;;;;;;5072707;28;20335;-66
2022/08/25 07:16:42;;;;;;;18.88;9.52;;;;;;;;;;5072527;28;20024;-66
2022/08/25 07:19:09;;;;;;;12.23;9.68;;;;;;;;;;5072597;28;20039;-66
2022/08/25 07:21:36;;;;;;;19.17;10.25;;;;;;;;;;5072491;28;20044;-66
2022/08/25 07:24:10;;;;;;;20.77;8.80;;;;;;;;;;5071265;28;20028;-66
2022/08/25 07:26:37;;;;;;;18.42;8.95;;;;;;;;;;5072646;28;20032;-67
2022/08/25 07:29:05;;;;;;;23.95;10.25;;;;;;;;;;5049548;28;20438;-66
2022/08/25 07:31:30;;;;;;;17.23;9.40;;;;;;;;;;5068730;28;20449;-66
2022/08/25 07:36:41;;;;;;;12.70;9.18;;;;;;;;;;5072569;28;20118;-64
2022/08/25 07:39:07;;;;;;;19.77;10.43;;;;;;;;;;5072264;28;20428;-67
2022/08/25 07:41:37;;;;;;;18.65;9.40;;;;;;;;;;5072247;28;20082;-67
2022/08/25 07:44:04;;;;;;;14.60;8.50;;;;;;;;;;5072697;28;20059;-67
2022/08/25 07:46:29;;;;;;;11.23;7.70;;;;;;;;;;5072447;28;20387;-65
2022/08/25 07:48:55;;;;;;;12.63;6.47;;;;;;;;;;5072422;28;20032;-65
2022/08/25 07:51:21;;;;;;;16.55;8.00;;;;;;;;;;5072293;28;20105;-65
2022/08/25 07:53:46;;;;;;;16.23;7.68;;;;;;;;;;5072041;28;20048;-65
2022/08/25 07:56:14;;;;;;;15.73;7.63;;;;;;;;;;5072402;28;20032;-69
2022/08/25 07:58:41;;;;;;;14.00;6.72;;;;;;;;;;5072262;28;20029;-66
2022/08/25 08:01:12;;;;;;;11.48;6.82;;;;;;;;;;5071955;28;20062;-65
2022/08/25 08:03:37;;;;;;;14.13;6.55;;;;;;;;;;5072299;28;20405;-66
2022/08/25 08:06:08;;;;;;;11.13;6.10;;;;;;;;;;5072200;28;20025;-65
2022/08/25 08:08:36;;;;;;;13.98;5.80;;;;;;;;;;5072309;28;20024;-67
2022/08/25 08:11:02;;;;;;;9.57;5.63;;;;;;;;;;5072230;28;20479;-66
2022/08/25 08:13:27;;;;;;;12.25;5.25;;;;;;;;;;5072245;28;20109;-66
2022/08/25 08:15:53;;;;;;;12.43;5.88;;;;;;;;;;5071866;28;20460;-66
2022/08/25 08:18:19;;;;;;;9.73;4.78;;;;;;;;;;5071740;28;20029;-63
2022/08/25 08:20:46;;;;;;;11.77;5.00;;;;;;;;;;5072036;28;20383;-64
2022/08/25 08:23:12;;;;;;;11.32;4.70;;;;;;;;;;5071622;28;20123;-63
2022/08/25 08:25:38;;;;;;;13.15;4.47;;;;;;;;;;5069601;28;20115;-63
2022/08/25 08:28:03;;;;;;;14.15;5.95;;;;;;;;;;5071386;28;20485;-67
2022/08/25 08:30:29;;;;;;;11.70;4.85;;;;;;;;;;5070355;28;20028;-65
2022/08/25 08:32:57;;;;;;;8.55;4.38;;;;;;;;;;5073997;28;20021;-66
2022/08/25 08:35:23;;;;;;;11.07;4.55;;;;;;;;;;5073903;28;20033;-67
2022/08/25 08:37:48;;;;;;;12.95;4.75;;;;;;;;;;5074511;28;20032;-64
2022/08/25 08:40:17;;;;;;;14.02;4.60;;;;;;;;;;5073947;28;20017;-64
2022/08/25 08:42:52;;;;;;;15.35;4.80;;;;;;;;;;5074204;28;20636;-66
2022/08/25 08:45:42;;;;;;;11.82;4.38;;;;;;;;;;5073924;28;20029;-69
2022/08/25 08:48:30;;;;;;;10.00;4.10;;;;;;;;;;5073463;28;20028;-67
2022/08/25 08:51:23;;;;;;;9.35;4.47;;;;;;;;;;5074560;28;20426;-66
2022/08/25 08:53:55;;;;;;;15.55;4.10;;;;;;;;;;5074865;28;20056;-65
2022/08/25 08:56:27;;;;;;;11.32;3.90;;;;;;;;;;5075283;28;20419;-65
2022/08/25 08:58:59;;;;;;;11.27;4.15;;;;;;;;;;5074929;28;20058;-65
2022/08/25 09:01:29;;;;;;;33.70;5.50;;;;;;;;;;5075218;28;20028;-68
2022/08/25 09:04:01;;;;;;;14.52;4.43;;;;;;;;;;5074979;28;20436;-66
2022/08/25 09:06:37;;;;;;;11.15;4.40;;;;;;;;;;5075200;28;20056;-66
2022/08/25 09:09:04;;;;;;;10.27;4.13;;;;;;;;;;5075202;28;20050;-63
2022/08/25 09:11:41;;;;;;;11.15;4.50;;;;;;;;;;5074996;28;20087;-64
2022/08/25 09:14:28;;;;;;;9.88;4.28;;;;;;;;;;5074733;28;20100;-66
2022/08/25 09:17:04;;;;;;;13.98;5.50;;;;;;;;;;5075227;28;20024;-63
2022/08/25 09:19:36;;;;;;;13.00;5.32;;;;;;;;;;5074922;28;20028;-63
2022/08/25 09:22:16;;;;;;;13.35;4.72;;;;;;;;;;5073542;28;20399;-64
2022/08/25 09:25:06;;;;;;;12.90;4.72;;;;;;;;;;5074670;28;20029;-63
2022/08/25 09:27:56;;;;;;;9.93;3.88;;;;;;;;;;5074709;28;20040;-63
2022/08/25 09:30:22;;;;;;;13.18;3.90;;;;;;;;;;5074850;28;20058;-62
2022/08/25 09:33:03;;;;;;;8.90;3.95;;;;;;;;;;5074795;28;20438;-63
2022/08/25 09:35:35;;;;;;;10.65;4.18;;;;;;;;;;5074435;28;20502;-66
2022/08/25 09:38:03;;;;;;;9.55;3.70;;;;;;;;;;5074409;28;20479;-63
2022/08/25 09:40:31;;;;;;;12.02;3.90;;;;;;;;;;5074535;28;20436;-64
2022/08/25 09:42:59;;;;;;;10.07;4.18;;;;;;;;;;5073273;28;20480;-64
2022/08/25 09:45:46;;;;;;;11.32;3.95;;;;;;;;;;5073843;28;20475;-66
2022/08/25 09:48:25;;;;;;;11.75;4.22;;;;;;;;;;5074285;28;20125;-64
2022/08/25 09:50:59;;;;;;;12.65;4.35;;;;;;;;;;5074268;28;20486;-67
2022/08/25 09:53:25;;;;;;;12.27;4.20;;;;;;;;;;5074028;28;20127;-65
2022/08/25 09:56:06;;;;;;;11.30;4.20;;;;;;;;;;5074259;28;20036;-64
2022/08/25 09:58:31;;;;;;;9.98;4.47;;;;;;;;;;5074035;28;20032;-67
2022/08/25 10:01:05;;;;;;;10.30;4.97;;;;;;;;;;5074015;28;20134;-62
2022/08/25 10:03:31;;;;;;;9.98;4.47;;;;;;;;;;5074053;28;20021;-63
2022/08/25 10:06:13;;;;;;;14.70;3.72;;;;;;;;;;5074032;28;20020;-64
2022/08/25 10:08:45;;;;;;;13.60;4.30;;;;;;;;;;5073912;28;20096;-64
2022/08/25 10:11:14;;;;;;;8.10;3.88;;;;;;;;;;5073665;28;20024;-64
2022/08/25 10:13:43;;;;;;;9.65;3.58;;;;;;;;;;5073792;28;20021;-63
2022/08/25 10:16:25;;;;;;;10.38;3.80;;;;;;;;;;5073763;28;20103;-69
2022/08/25 10:19:04;;;;;;;10.32;3.72;;;;;;;;;;5073634;28;20029;-66
2022/08/25 10:21:30;;;;;;;8.57;3.55;;;;;;;;;;5072313;28;20025;-66
2022/08/25 10:23:56;;;;;;;10.30;3.40;;;;;;;;;;5073422;28;20547;-66
2022/08/25 10:26:52;;;;;;;9.27;3.60;;;;;;;;;;5073415;28;20486;-66
2022/08/25 10:29:23;;;;;;;11.10;3.53;;;;;;;;;;5073527;28;20028;-70
2022/08/25 10:32:16;;;;;;;15.20;3.83;;;;;;;;;;5073629;28;20021;-70
2022/08/25 10:34:51;;;;;;;13.00;3.97;;;;;;;;;;5073602;28;20498;-65
2022/08/25 10:37:33;;;;;;;11.15;3.80;;;;;;;;;;5073399;28;20067;-70
2022/08/25 10:40:13;;;;;;;10.75;3.60;;;;;;;;;;5073177;28;20089;-67
2022/08/25 10:42:59;;;;;;;7.72;3.83;;;;;;;;;;5073060;28;20464;-71
2022/08/25 10:45:41;;;;;;;11.90;3.42;;;;;;;;;;5051016;28;20047;-62
2022/08/25 10:48:41;;;;;;;14.70;3.85;;;;;;;;;;5050838;28;20416;-64
2022/08/25 10:51:36;;;;;;;10.35;3.65;;;;;;;;;;5051098;28;20048;-62
2022/08/25 10:54:16;;;;;;;8.27;3.35;;;;;;;;;;5048363;28;20049;-63
2022/08/25 10:57:07;;;;;;;10.27;3.90;;;;;;;;;;5050902;28;20506;-67
2022/08/25 10:59:38;;;;;;;9.25;3.47;;;;;;;;;;4991180;28;20058;-62
2022/08/25 11:02:43;;;;;;;10.38;3.60;;;;;;;;;;4991357;28;20188;-67
2022/08/25 11:05:18;;;;;;;8.82;3.17;;;;;;;;;;4895747;29;20033;-69
2022/08/25 11:07:48;;;;;;;8.50;3.35;;;;;;;;;;4896005;29;20476;-67
2022/08/25 11:10:25;;;;;;;8.30;3.30;;;;;;;;;;4895444;29;20055;-70
2022/08/25 11:12:59;;;;;;;11.38;3.63;;;;;;;;;;4895939;29;20028;-71
2022/08/25 11:15:35;;;;;;;7.70;3.72;;;;;;;;;;4895655;29;20381;-65
2022/08/25 11:18:07;;;;;;;10.45;3.70;;;;;;;;;;4895640;29;20045;-68
2022/08/25 11:20:40;;;;;;;10.25;3.25;;;;;;;;;;4895730;29;20040;-69
2022/08/25 11:23:18;;;;;;;7.60;3.25;;;;;;;;;;4909360;29;20036;-65
2022/08/25 11:25:50;;;;;;;8.63;3.28;;;;;;;;;;4914802;29;20044;-68
2022/08/25 11:28:50;;;;;;;12.52;3.83;;;;;;;;;;4914515;29;20491;-68
2022/08/25 11:31:18;;;;;;;8.40;3.78;;;;;;;;;;4858455;29;20122;-68
2022/08/25 11:33:47;;;;;;;7.55;3.70;;;;;;;;;;4858335;29;20489;-65
2022/08/25 11:36:24;;;;;;;10.32;3.47;;;;;;;;;;4891839;29;20115;-65
2022/08/25 11:38:52;;;;;;;7.75;3.50;;;;;;;;;;4933140;29;20083;-65
2022/08/25 11:41:39;;;;;;;7.65;3.60;;;;;;;;;;4958571;28;20042;-70
2022/08/25 11:44:32;;;;;;;9.82;3.78;;;;;;;;;;5010644;28;20037;-66
2022/08/25 11:47:19;;;;;;;8.02;3.47;;;;;;;;;;5010719;28;20069;-71
2022/08/25 11:50:23;;;;;;;14.18;4.82;;;;;;;;;;5010730;28;20042;-65
2022/08/25 11:52:56;;;;;;;9.10;3.22;;;;;;;;;;5010321;28;20539;-65
2022/08/25 11:55:43;;;;;;;9.07;3.65;;;;;;;;;;5010545;28;20065;-67
2022/08/25 11:58:26;;;;;;;11.07;3.53;;;;;;;;;;5010741;28;20133;-63
2022/08/25 12:00:53;;;;;;;8.45;3.45;;;;;;;;;;5010634;28;20053;-66
2022/08/25 12:03:31;;;;;;;12.80;3.85;;;;;;;;;;5010612;28;20057;-71
2022/08/25 12:06:15;;;;;;;9.25;3.45;;;;;;;;;;5043294;28;20041;-69
2022/08/25 12:08:59;;;;;;;9.23;3.50;;;;;;;;;;5055953;28;20036;-68
2022/08/25 12:11:37;;;;;;;13.38;3.88;;;;;;;;;;5056306;28;20029;-65
2022/08/25 12:14:25;;;;;;;9.98;3.78;;;;;;;;;;5056129;28;20028;-64
2022/08/25 12:16:52;;;;;;;8.48;3.58;;;;;;;;;;5056176;28;20041;-67
2022/08/25 12:19:47;;;;;;;11.80;3.65;;;;;;;;;;5054585;28;20087;-65
2022/08/25 12:22:12;;;;;;;10.48;3.90;;;;;;;;;;5055893;28;20029;-70
2022/08/25 12:24:46;;;;;;;8.45;3.83;;;;;;;;;;5055721;28;20087;-67
2022/08/25 12:27:24;;;;;;;8.75;3.83;;;;;;;;;;5055874;28;20029;-64
2022/08/25 12:29:56;;;;;;;12.60;3.72;;;;;;;;;;5056083;28;20068;-70
2022/08/25 12:32:32;;;;;;;10.15;4.10;;;;;;;;;;5055842;28;20025;-69
2022/08/25 12:35:20;;;;;;;11.55;3.85;;;;;;;;;;5055811;28;20063;-66
2022/08/25 12:38:09;;;;;;;10.13;3.88;;;;;;;;;;5055483;28;20025;-67
2022/08/25 12:40:56;;;;;;;10.27;3.50;;;;;;;;;;5055709;28;20074;-65
2022/08/25 12:43:26;;;;;;;11.80;3.50;;;;;;;;;;5055508;28;20033;-66
2022/08/25 12:46:13;;;;;;;12.63;3.50;;;;;;;;;;5055521;28;20021;-63
2022/08/25 12:48:53;;;;;;;7.25;3.17;;;;;;;;;;5055406;28;20029;-70
2022/08/25 12:51:20;;;;;;;8.18;3.50;;;;;;;;;;5055278;28;20032;-67
2022/08/25 12:53:51;;;;;;;13.20;3.95;;;;;;;;;;5055200;28;20122;-63
2022/08/25 12:56:22;;;;;;;11.98;3.42;;;;;;;;;;5055388;28;20056;-67
2022/08/25 12:59:11;;;;;;;23.90;4.75;;;;;;;;;;5055194;28;20021;-68
2022/08/25 13:01:39;;;;;;;12.50;3.83;;;;;;;;;;5055198;28;20578;-63
2022/08/25 13:04:29;;;;;;;17.48;3.95;;;;;;;;;;5055236;28;20155;-64
2022/08/25 13:07:42;;;;;;;11.18;3.70;;;;;;;;;;5055185;28;20060;-67
2022/08/25 13:10:14;;;;;;;14.30;3.50;;;;;;;;;;5052984;28;20063;-68
2022/08/25 13:13:50;;;;;;;14.73;3.72;;;;;;;;;;5055048;28;20483;-66
2022/08/25 13:16:21;;;;;;;5.88;2.90;;;;;;;;;;4973975;28;20509;-68
2022/08/25 13:18:47;;;;;;;12.75;3.58;;;;;;;;;;4973733;28;20043;-68
2022/08/25 13:21:22;;;;;;;12.55;3.83;;;;;;;;;;4973909;28;20041;-68
2022/08/25 13:23:50;;;;;;;13.57;3.63;;;;;;;;;;4973952;28;20037;-69
2022/08/25 13:26:22;;;;;;;8.50;3.70;;;;;;;;;;4973700;28;20181;-66
2022/08/25 13:28:58;;;;;;;8.85;3.95;;;;;;;;;;4974031;28;20030;-69
2022/08/25 13:31:27;;;;;;;9.50;4.10;;;;;;;;;;4973803;28;20118;-65
2022/08/25 13:34:02;;;;;;;14.45;3.63;;;;;;;;;;4973586;28;20406;-69
2022/08/25 13:39:21;;;;;;;10.63;3.55;;;;;;;;;;4973571;28;20041;-66
2022/08/25 13:41:56;;;;;;;15.15;4.15;;;;;;;;;;4981850;28;20045;-65
2022/08/25 13:44:24;;;;;;;10.00;4.00;;;;;;;;;;4992926;28;20035;-66
2022/08/25 13:47:30;;;;;;;12.88;3.97;;;;;;;;;;5005789;28;20037;-67
2022/08/25 13:50:33;;;;;;;11.45;3.58;;;;;;;;;;5012432;28;20053;-67
2022/08/25 13:53:06;;;;;;;9.18;3.70;;;;;;;;;;5052325;28;20567;-67
2022/08/25 13:55:48;;;;;;;12.20;4.07;;;;;;;;;;5054282;28;20039;-64
2022/08/25 13:58:17;;;;;;;10.75;3.92;;;;;;;;;;5054169;28;20033;-67
2022/08/25 14:00:46;;;;;;;8.07;3.72;;;;;;;;;;5054096;28;20021;-64
2022/08/25 14:03:31;;;;;;;11.80;3.53;;;;;;;;;;5053859;28;20024;-65
2022/08/25 14:06:15;;;;;;;14.38;3.75;;;;;;;;;;5053914;28;20484;-64
2022/08/25 14:08:58;;;;;;;12.77;3.80;;;;;;;;;;5054089;28;20029;-68
2022/08/25 14:11:42;;;;;;;11.48;3.88;;;;;;;;;;5052593;28;20404;-66
2022/08/25 14:14:31;;;;;;;11.68;5.22;;;;;;;;;;5053719;28;20095;-66
2022/08/25 14:17:08;;;;;;;18.30;5.80;;;;;;;;;;5053576;28;20185;-64
2022/08/25 14:19:43;;;;;;;10.45;4.10;;;;;;;;;;5053710;28;20033;-68
2022/08/25 14:22:11;;;;;;;11.13;3.63;;;;;;;;;;5052390;28;20025;-67
2022/08/25 14:24:37;;;;;;;15.15;4.00;;;;;;;;;;5053450;28;20029;-66
2022/08/25 14:27:03;;;;;;;12.40;3.88;;;;;;;;;;5053796;28;20020;-65
2022/08/25 14:29:30;;;;;;;8.55;3.88;;;;;;;;;;5053000;28;20067;-65
2022/08/25 14:31:56;;;;;;;8.80;3.65;;;;;;;;;;5053356;28;20522;-66
2022/08/25 14:34:25;;;;;;;9.00;3.78;;;;;;;;;;5053618;28;20462;-68
2022/08/25 14:36:51;;;;;;;16.25;3.88;;;;;;;;;;5053510;28;20025;-66
2022/08/25 14:39:17;;;;;;;19.38;4.72;;;;;;;;;;5053377;28;20179;-66
2022/08/25 14:41:45;;;;;;;10.60;3.67;;;;;;;;;;5061489;28;20028;-67
2022/08/25 14:44:12;;;;;;;13.35;4.10;;;;;;;;;;5073176;28;20029;-68
2022/08/25 14:46:41;;;;;;;10.65;3.60;;;;;;;;;;5072989;28;20028;-65
2022/08/25 14:49:10;;;;;;;10.20;3.78;;;;;;;;;;5073265;28;20495;-65
2022/08/25 14:51:40;;;;;;;13.67;4.00;;;;;;;;;;5073274;28;20379;-65
2022/08/25 14:54:09;;;;;;;12.00;4.00;;;;;;;;;;5071681;28;20449;-65
2022/08/25 14:56:35;;;;;;;13.82;3.78;;;;;;;;;;5073320;28;20032;-65
2022/08/25 14:59:00;;;;;;;10.05;3.75;;;;;;;;;;5073087;28;20059;-65